Huvudsida
METAR-TAF:

METAR-TAF

Flygplatser :

Užice, Serbien

latitud: 43-53-56N, longitud: 19-41-52E, höjd: 904 m

Aktuellt väderrapport

Denna rapport gjordes för 32 minuter sedan, klockan 21:30 UTC
Vind 2 kt från väst/sydväst
Temperatur 1°C
Fuktighet 86%
Tryck 1011 hPa
Sikt 10 km eller mer
Inga moln under 1 500 m eller inga cumulonimbus

METAR: LYUZ 142130Z AUTO 25002KT CAVOK 01/M01 Q1011

Tid: 23:02 (22:02 UTC)

Väderprognos

Denna rapport gjordes för 5 timmar och 2 minuter sedan, klockan 17:00 UTC
Prognos gäller från 14 kl. 18 UTC till 15 kl. 18 UTC
Vind 4 kt från väst/sydväst
Sikt 10 km eller mer
Inga moln under 1 500 m eller inga cumulonimbus

TAF: LYUZ 141700Z 1418/1518 25004KT CAVOK TX09/1512Z TNM02/1502Z

Aktuella väderrapporter och prognoser från 4000 flygplatser (METAR- och TAF-rapporter).

De tillgängliga stationerna syns som gula och röda prickar på kartan.

För musen över prickarna för att se namnen på stationerna.

Klicka sedan för att få väderrapporter och prognoser.

För att ändra kartan: Klicka på de gröna knapparna med ett svart kors på för att zooma in; den gröna knappen med ett streck på för att zooma ut; eller på de gröna pilarna för angränsande kartor.


METAR-TAF: